Time;durP1;ratioP1;P1;durP2;ratioP2;P2;SDS_P1;SDS_P2;PMS_P1;PMS_P2;Temp;Humidity;BMP_temperature;BMP_pressure;BME280_temperature;BME280_humidity;BME280_pressure;Samples;Min_cycle;Max_cycle;Signal;HPM_P1;HPM_P2
2021/03/24 00:00:50;;;;;;;;;;;21.90;32.30;;;;;;467623;252;1217;-45
2021/03/24 00:02:51;;;;;;;;;;;21.90;32.30;;;;;;468920;253;1132;-46
2021/03/24 00:04:52;;;;;;;;;;;21.90;32.30;;;;;;467151;253;1088;-45
2021/03/24 00:06:54;;;;;;;;;;;21.80;32.30;;;;;;467804;255;962;-45
2021/03/24 00:08:55;;;;;;;;;;;21.90;32.40;;;;;;467989;254;1053;-45
2021/03/24 00:10:56;;;;;;;;;;;21.90;32.30;;;;;;467646;253;1063;-45
2021/03/24 00:12:57;;;;;;;;;;;21.90;32.40;;;;;;469080;252;1017;-45
2021/03/24 00:14:59;;;;;;;;;;;21.90;32.30;;;;;;467144;252;2193;-45
2021/03/24 00:17:00;;;;;;;;;;;21.90;32.30;;;;;;467919;253;1278;-45
2021/03/24 00:19:01;;;;;;;;;;;21.90;32.30;;;;;;468059;253;1043;-45
2021/03/24 00:21:03;;;;;;;;;;;21.90;32.30;;;;;;469219;253;1093;-45
2021/03/24 00:23:04;;;;;;;;;;;21.90;32.30;;;;;;467073;253;1061;-45
2021/03/24 00:25:05;;;;;;;;;;;21.90;32.30;;;;;;467906;255;1091;-45
2021/03/24 00:27:06;;;;;;;;;;;21.90;32.30;;;;;;467582;254;1079;-45
2021/03/24 00:29:08;;;;;;;;;;;21.90;32.40;;;;;;468999;252;1107;-45
2021/03/24 00:31:09;;;;;;;;;;;21.90;32.30;;;;;;467081;254;1147;-45
2021/03/24 00:33:10;;;;;;;;;;;21.90;32.40;;;;;;468008;253;1078;-45
2021/03/24 00:35:12;;;;;;;;;;;21.90;32.30;;;;;;467656;252;2149;-45
2021/03/24 00:37:13;;;;;;;;;;;21.90;32.30;;;;;;468999;251;1055;-45
2021/03/24 00:39:17;;;;;;;;;;;22.00;32.20;;;;;;467106;253;1045;-45
2021/03/24 00:41:15;;;;;;;;;;;21.60;32.70;;;;;;467924;253;1967;-45
2021/03/24 00:43:17;;;;;;;;;;;21.00;33.80;;;;;;467952;254;1044;-45
2021/03/24 00:45:18;;;;;;;;;;;20.40;34.60;;;;;;467903;254;1173;-45
2021/03/24 00:47:19;;;;;;;;;;;20.10;35.40;;;;;;467898;254;1179;-45
2021/03/24 00:49:20;;;;;;;;;;;19.80;35.80;;;;;;467931;254;1069;-45
2021/03/24 00:51:22;;;;;;;;;;;19.70;36.20;;;;;;467923;254;1059;-45
2021/03/24 00:53:23;;;;;;;;;;;19.50;36.50;;;;;;467678;253;1085;-45
2021/03/24 00:55:25;;;;;;;;;;;19.40;36.80;;;;;;468925;252;2192;-45
2021/03/24 00:57:26;;;;;;;;;;;19.20;37.00;;;;;;467256;252;1054;-45
2021/03/24 00:59:27;;;;;;;;;;;19.10;37.20;;;;;;467861;255;989;-45
2021/03/24 01:01:29;;;;;;;;;;;19.10;37.30;;;;;;469325;253;1242;-45
2021/03/24 01:03:30;;;;;;;;;;;19.00;37.40;;;;;;469835;253;978;-45
2021/03/24 01:05:31;;;;;;;;;;;18.90;37.50;;;;;;467931;254;1015;-45
2021/03/24 01:07:32;;;;;;;;;;;18.80;37.70;;;;;;468119;252;1193;-45
2021/03/24 01:09:34;;;;;;;;;;;18.80;37.80;;;;;;469129;253;1075;-45
2021/03/24 01:11:35;;;;;;;;;;;18.80;37.90;;;;;;467232;252;1070;-45
2021/03/24 01:13:36;;;;;;;;;;;18.70;37.90;;;;;;467932;255;1121;-45
2021/03/24 01:15:37;;;;;;;;;;;18.70;38.00;;;;;;467873;254;2200;-45
2021/03/24 01:17:39;;;;;;;;;;;18.60;38.00;;;;;;468043;254;1230;-45
2021/03/24 01:19:40;;;;;;;;;;;18.60;38.10;;;;;;467935;254;1072;-45
2021/03/24 01:21:41;;;;;;;;;;;18.50;38.10;;;;;;467704;252;1244;-45
2021/03/24 01:23:43;;;;;;;;;;;18.50;38.10;;;;;;468939;252;1241;-45
2021/03/24 01:25:44;;;;;;;;;;;18.50;38.10;;;;;;467444;252;1145;-45
2021/03/24 01:27:45;;;;;;;;;;;18.40;38.30;;;;;;468074;253;1056;-45
2021/03/24 01:29:46;;;;;;;;;;;18.40;38.30;;;;;;468071;254;1241;-45
2021/03/24 01:31:48;;;;;;;;;;;18.40;38.40;;;;;;467629;253;1335;-45
2021/03/24 01:33:49;;;;;;;;;;;18.40;38.40;;;;;;469033;252;1023;-45
2021/03/24 01:35:50;;;;;;;;;;;18.30;38.50;;;;;;467187;254;2142;-44
2021/03/24 01:37:51;;;;;;;;;;;18.30;38.50;;;;;;467899;253;1044;-45
2021/03/24 01:39:53;;;;;;;;;;;18.20;38.50;;;;;;467932;254;1088;-45
2021/03/24 01:41:54;;;;;;;;;;;18.20;38.60;;;;;;467663;252;1064;-45
2021/03/24 01:43:55;;;;;;;;;;;18.20;38.60;;;;;;469183;253;1093;-45
2021/03/24 01:45:57;;;;;;;;;;;18.10;38.60;;;;;;467302;253;1077;-45
2021/03/24 01:47:58;;;;;;;;;;;18.10;38.70;;;;;;467978;253;1209;-45
2021/03/24 01:49:59;;;;;;;;;;;18.10;38.70;;;;;;467879;254;1105;-45
2021/03/24 01:52:00;;;;;;;;;;;18.10;38.80;;;;;;467933;254;1116;-45
2021/03/24 01:54:02;;;;;;;;;;;18.10;38.70;;;;;;469275;254;1097;-45
2021/03/24 01:56:03;;;;;;;;;;;18.00;38.70;;;;;;470121;253;2152;-45
2021/03/24 01:58:04;;;;;;;;;;;18.00;38.90;;;;;;467960;254;1103;-45
2021/03/24 02:00:06;;;;;;;;;;;18.00;38.80;;;;;;468188;254;1086;-45
2021/03/24 02:02:07;;;;;;;;;;;18.00;38.90;;;;;;467643;253;1320;-45
2021/03/24 02:04:08;;;;;;;;;;;18.00;38.90;;;;;;469243;253;1075;-45
2021/03/24 02:06:09;;;;;;;;;;;17.90;38.90;;;;;;467281;252;1152;-45
2021/03/24 02:08:11;;;;;;;;;;;17.90;39.00;;;;;;468356;253;1098;-45
2021/03/24 02:10:12;;;;;;;;;;;17.80;38.90;;;;;;468218;254;1095;-45
2021/03/24 02:12:13;;;;;;;;;;;17.90;39.00;;;;;;467703;252;1076;-45
2021/03/24 02:14:14;;;;;;;;;;;17.80;39.00;;;;;;468959;252;1066;-45
2021/03/24 02:16:16;;;;;;;;;;;17.80;39.00;;;;;;467165;253;2201;-44
2021/03/24 02:18:17;;;;;;;;;;;17.80;39.00;;;;;;468113;253;1472;-45
2021/03/24 02:20:18;;;;;;;;;;;17.70;39.10;;;;;;468108;253;1059;-45
2021/03/24 02:22:20;;;;;;;;;;;17.70;39.00;;;;;;469255;253;1093;-45
2021/03/24 02:24:21;;;;;;;;;;;17.70;39.00;;;;;;467512;254;1112;-45
2021/03/24 02:26:22;;;;;;;;;;;17.70;39.00;;;;;;468002;253;1135;-45
2021/03/24 02:28:23;;;;;;;;;;;17.70;39.00;;;;;;467708;253;1052;-45
2021/03/24 02:30:25;;;;;;;;;;;18.10;38.60;;;;;;468959;253;1092;-45
2021/03/24 02:32:26;;;;;;;;;;;18.50;37.50;;;;;;467410;253;1257;-45
2021/03/24 02:34:27;;;;;;;;;;;19.00;36.60;;;;;;468367;255;1028;-45
2021/03/24 02:36:29;;;;;;;;;;;19.30;36.00;;;;;;468007;254;2354;-45
2021/03/24 02:38:30;;;;;;;;;;;19.50;35.60;;;;;;467703;252;1014;-45
2021/03/24 02:40:31;;;;;;;;;;;19.70;35.30;;;;;;469038;253;1098;-45
2021/03/24 02:42:32;;;;;;;;;;;19.80;35.00;;;;;;467215;253;1313;-45
2021/03/24 02:44:34;;;;;;;;;;;19.90;34.80;;;;;;468045;253;1082;-45
2021/03/24 02:46:35;;;;;;;;;;;20.00;34.70;;;;;;467997;253;1246;-45
2021/03/24 02:48:38;;;;;;;;;;;20.00;34.50;;;;;;468030;254;1185;-45
2021/03/24 02:50:39;;;;;;;;;;;20.10;34.40;;;;;;467954;254;1115;-45
2021/03/24 02:52:41;;;;;;;;;;;20.20;34.30;;;;;;467974;254;1078;-45
2021/03/24 02:54:42;;;;;;;;;;;20.20;34.20;;;;;;468372;254;968;-45
2021/03/24 02:56:43;;;;;;;;;;;20.30;34.20;;;;;;468280;254;2184;-45
2021/03/24 02:58:45;;;;;;;;;;;20.30;34.10;;;;;;467963;252;1033;-45
2021/03/24 03:00:46;;;;;;;;;;;20.30;34.00;;;;;;469065;252;1069;-45
2021/03/24 03:02:47;;;;;;;;;;;20.40;34.00;;;;;;467287;253;1347;-45
2021/03/24 03:04:48;;;;;;;;;;;20.40;33.90;;;;;;467960;253;1064;-45
2021/03/24 03:06:50;;;;;;;;;;;20.40;33.80;;;;;;468101;254;1104;-45
2021/03/24 03:08:51;;;;;;;;;;;20.50;33.80;;;;;;468014;254;1070;-45
2021/03/24 03:10:53;;;;;;;;;;;20.50;33.70;;;;;;467704;252;1073;-45
2021/03/24 03:12:54;;;;;;;;;;;20.60;33.70;;;;;;469098;253;1082;-45
2021/03/24 03:14:55;;;;;;;;;;;20.60;33.60;;;;;;467167;254;1058;-45
2021/03/24 03:16:57;;;;;;;;;;;20.70;33.60;;;;;;467982;253;2200;-45
2021/03/24 03:18:58;;;;;;;;;;;20.70;33.50;;;;;;467803;252;1413;-45
2021/03/24 03:20:59;;;;;;;;;;;20.70;33.50;;;;;;468962;253;979;-45
2021/03/24 03:23:00;;;;;;;;;;;20.70;33.50;;;;;;467525;252;1077;-45
2021/03/24 03:25:02;;;;;;;;;;;20.70;33.40;;;;;;468052;253;1035;-45
2021/03/24 03:27:03;;;;;;;;;;;20.70;33.40;;;;;;469217;254;1007;-45
2021/03/24 03:29:04;;;;;;;;;;;20.70;33.30;;;;;;469795;253;1086;-45
2021/03/24 03:31:06;;;;;;;;;;;20.80;33.40;;;;;;469416;254;1029;-45
2021/03/24 03:33:07;;;;;;;;;;;20.80;33.40;;;;;;469768;254;1286;-45
2021/03/24 03:35:08;;;;;;;;;;;20.80;33.20;;;;;;469314;254;1090;-45
2021/03/24 03:37:09;;;;;;;;;;;20.90;33.30;;;;;;469755;254;2168;-45
2021/03/24 03:39:11;;;;;;;;;;;20.90;33.20;;;;;;467955;254;1077;-45
2021/03/24 03:41:12;;;;;;;;;;;20.90;33.20;;;;;;467726;254;1104;-45
2021/03/24 03:43:13;;;;;;;;;;;20.90;33.20;;;;;;467902;254;1092;-45
2021/03/24 03:45:14;;;;;;;;;;;20.90;33.20;;;;;;467556;253;1267;-45
2021/03/24 03:47:16;;;;;;;;;;;20.90;33.10;;;;;;468862;253;1279;-45
2021/03/24 03:49:17;;;;;;;;;;;21.00;33.10;;;;;;467125;253;1165;-45
2021/03/24 03:51:18;;;;;;;;;;;21.00;33.10;;;;;;467721;255;1141;-45
2021/03/24 03:53:20;;;;;;;;;;;21.00;33.10;;;;;;467866;254;1000;-45
2021/03/24 03:55:21;;;;;;;;;;;21.00;33.00;;;;;;467754;253;1461;-45
2021/03/24 03:57:22;;;;;;;;;;;21.00;33.00;;;;;;467547;253;2192;-45
2021/03/24 03:59:23;;;;;;;;;;;21.00;33.00;;;;;;468938;253;1070;-45
2021/03/24 04:01:25;;;;;;;;;;;21.00;33.00;;;;;;467036;253;1241;-45
2021/03/24 04:03:26;;;;;;;;;;;21.00;33.00;;;;;;468313;253;1370;-45
2021/03/24 04:05:27;;;;;;;;;;;21.10;33.00;;;;;;468062;254;1085;-45
2021/03/24 04:07:29;;;;;;;;;;;21.10;33.00;;;;;;467734;252;1093;-45
2021/03/24 04:09:30;;;;;;;;;;;21.10;32.90;;;;;;468900;253;983;-45
2021/03/24 04:11:31;;;;;;;;;;;21.10;32.90;;;;;;467019;253;1041;-45
2021/03/24 04:13:32;;;;;;;;;;;21.10;32.90;;;;;;467955;253;1060;-45
2021/03/24 04:15:34;;;;;;;;;;;21.10;32.90;;;;;;467557;252;1064;-45
2021/03/24 04:17:35;;;;;;;;;;;21.10;32.90;;;;;;469014;252;2266;-45
2021/03/24 04:19:36;;;;;;;;;;;21.10;32.90;;;;;;467195;252;1153;-45
2021/03/24 04:21:37;;;;;;;;;;;21.10;32.80;;;;;;467823;255;1081;-45
2021/03/24 04:23:39;;;;;;;;;;;21.20;32.90;;;;;;467870;254;1083;-45
2021/03/24 04:25:40;;;;;;;;;;;21.20;32.90;;;;;;467606;253;1010;-45
2021/03/24 04:27:41;;;;;;;;;;;21.20;32.90;;;;;;469343;252;1194;-45
2021/03/24 04:29:43;;;;;;;;;;;21.20;32.90;;;;;;467370;253;1062;-45
2021/03/24 04:31:44;;;;;;;;;;;21.20;32.90;;;;;;467999;253;1111;-45
2021/03/24 04:33:45;;;;;;;;;;;21.20;32.90;;;;;;467678;253;1309;-45
2021/03/24 04:35:46;;;;;;;;;;;21.20;32.80;;;;;;468966;252;1329;-45
2021/03/24 04:37:48;;;;;;;;;;;21.20;32.90;;;;;;467108;252;2146;-45
2021/03/24 04:39:49;;;;;;;;;;;21.30;32.80;;;;;;467927;253;1370;-45
2021/03/24 04:41:50;;;;;;;;;;;21.30;32.80;;;;;;467885;254;1295;-45
2021/03/24 04:43:52;;;;;;;;;;;21.30;32.80;;;;;;467909;254;1038;-45
2021/03/24 04:45:53;;;;;;;;;;;21.30;32.70;;;;;;467531;253;1051;-45
2021/03/24 04:47:54;;;;;;;;;;;21.30;32.70;;;;;;468891;252;1105;-45
2021/03/24 04:49:55;;;;;;;;;;;21.30;32.70;;;;;;467017;253;1312;-45
2021/03/24 04:51:57;;;;;;;;;;;21.30;32.70;;;;;;467752;253;1145;-45
2021/03/24 04:53:58;;;;;;;;;;;21.30;32.70;;;;;;468151;254;1130;-45
2021/03/24 04:55:59;;;;;;;;;;;21.30;32.70;;;;;;467841;253;1039;-45
2021/03/24 04:58:01;;;;;;;;;;;21.30;32.60;;;;;;469184;253;2133;-45
2021/03/24 05:00:02;;;;;;;;;;;21.30;32.60;;;;;;467145;253;1093;-45
2021/03/24 05:02:03;;;;;;;;;;;21.40;32.70;;;;;;468184;253;1132;-45
2021/03/24 05:04:04;;;;;;;;;;;21.40;32.70;;;;;;469219;254;1199;-45
2021/03/24 05:06:06;;;;;;;;;;;21.40;32.60;;;;;;469582;254;1222;-45
2021/03/24 05:08:07;;;;;;;;;;;21.40;32.60;;;;;;467998;254;1094;-45
2021/03/24 05:10:08;;;;;;;;;;;21.40;32.70;;;;;;467597;253;1106;-45
2021/03/24 05:12:09;;;;;;;;;;;21.40;32.60;;;;;;468772;253;1084;-45
2021/03/24 05:14:13;;;;;;;;;;;21.40;32.60;;;;;;467080;254;1073;-45
2021/03/24 05:16:13;;;;;;;;;;;21.40;32.60;;;;;;467778;253;2137;-45
2021/03/24 05:18:14;;;;;;;;;;;21.40;32.60;;;;;;467533;253;1064;-45
2021/03/24 05:20:15;;;;;;;;;;;21.40;32.60;;;;;;468913;252;1190;-45
2021/03/24 05:22:17;;;;;;;;;;;21.40;32.70;;;;;;467025;252;1284;-45
2021/03/24 05:24:19;;;;;;;;;;;21.40;32.60;;;;;;467941;253;1118;-45
2021/03/24 05:26:21;;;;;;;;;;;21.40;32.60;;;;;;467885;254;1096;-45
2021/03/24 05:28:22;;;;;;;;;;;21.40;32.60;;;;;;467888;254;1035;-45
2021/03/24 05:30:23;;;;;;;;;;;21.50;32.60;;;;;;467744;254;1148;-45
2021/03/24 05:32:25;;;;;;;;;;;21.40;32.60;;;;;;467691;253;1084;-45
2021/03/24 05:34:26;;;;;;;;;;;21.40;32.60;;;;;;468690;253;1184;-45
2021/03/24 05:36:27;;;;;;;;;;;21.40;32.60;;;;;;466780;254;2153;-45
2021/03/24 05:38:28;;;;;;;;;;;21.40;32.60;;;;;;467649;253;1099;-45
2021/03/24 05:40:30;;;;;;;;;;;21.40;32.60;;;;;;469001;253;1360;-45
2021/03/24 05:42:31;;;;;;;;;;;21.40;32.60;;;;;;469323;253;1328;-45
2021/03/24 05:44:32;;;;;;;;;;;21.50;32.60;;;;;;468918;254;1075;-45
2021/03/24 05:46:33;;;;;;;;;;;21.50;32.60;;;;;;469293;253;1359;-45
2021/03/24 05:48:35;;;;;;;;;;;21.50;32.60;;;;;;467659;254;1162;-45
2021/03/24 05:50:36;;;;;;;;;;;21.40;32.60;;;;;;467478;252;1226;-45
2021/03/24 05:52:37;;;;;;;;;;;21.50;32.60;;;;;;468721;253;1195;-45
2021/03/24 05:54:39;;;;;;;;;;;21.50;32.60;;;;;;466807;253;1094;-45
2021/03/24 05:56:40;;;;;;;;;;;21.50;32.60;;;;;;467541;253;2212;-45
2021/03/24 05:58:41;;;;;;;;;;;21.50;32.60;;;;;;467721;254;1094;-46
2021/03/24 06:00:42;;;;;;;;;;;21.50;32.60;;;;;;467650;254;1058;-45
2021/03/24 06:02:44;;;;;;;;;;;21.50;32.60;;;;;;467282;253;1073;-45
2021/03/24 06:04:45;;;;;;;;;;;21.50;32.60;;;;;;468711;252;1188;-45
2021/03/24 06:06:46;;;;;;;;;;;21.50;32.60;;;;;;466808;252;1067;-45
2021/03/24 06:08:48;;;;;;;;;;;21.50;32.60;;;;;;467609;255;1063;-46
2021/03/24 06:10:49;;;;;;;;;;;21.50;32.60;;;;;;467586;254;1122;-46
2021/03/24 06:12:50;;;;;;;;;;;21.50;32.60;;;;;;467670;254;1174;-45
2021/03/24 06:14:51;;;;;;;;;;;21.50;32.60;;;;;;467588;254;1103;-45
2021/03/24 06:16:53;;;;;;;;;;;21.50;32.60;;;;;;467486;254;2188;-45
2021/03/24 06:18:54;;;;;;;;;;;21.50;32.60;;;;;;467711;254;1067;-45
2021/03/24 06:20:55;;;;;;;;;;;21.50;32.60;;;;;;467227;253;1298;-45
2021/03/24 06:22:56;;;;;;;;;;;21.50;32.60;;;;;;468647;252;1165;-45
2021/03/24 06:24:58;;;;;;;;;;;21.50;32.60;;;;;;466758;254;1083;-45
2021/03/24 06:26:59;;;;;;;;;;;21.50;32.60;;;;;;467362;252;1221;-45
2021/03/24 06:29:00;;;;;;;;;;;21.50;32.60;;;;;;467228;252;1116;-45
2021/03/24 06:31:02;;;;;;;;;;;21.50;32.60;;;;;;468567;253;1435;-45
2021/03/24 06:33:03;;;;;;;;;;;21.50;32.60;;;;;;466680;252;1076;-45
2021/03/24 06:35:05;;;;;;;;;;;21.50;32.60;;;;;;467476;253;1082;-45
2021/03/24 06:37:07;;;;;;;;;;;21.50;32.60;;;;;;467438;254;2188;-45
2021/03/24 06:39:08;;;;;;;;;;;21.50;32.60;;;;;;467209;253;1142;-45
2021/03/24 06:41:09;;;;;;;;;;;21.50;32.60;;;;;;468733;251;1285;-45
2021/03/24 06:43:11;;;;;;;;;;;21.50;32.60;;;;;;466663;252;1128;-45
2021/03/24 06:45:12;;;;;;;;;;;21.50;32.60;;;;;;467386;253;1170;-45
2021/03/24 06:47:13;;;;;;;;;;;21.50;32.60;;;;;;466968;253;1099;-45
2021/03/24 06:49:14;;;;;;;;;;;21.50;32.50;;;;;;468385;252;1070;-45
2021/03/24 06:51:16;;;;;;;;;;;21.60;32.50;;;;;;466474;253;1344;-45
2021/03/24 06:53:17;;;;;;;;;;;21.60;32.50;;;;;;467753;253;1100;-45
2021/03/24 06:55:18;;;;;;;;;;;21.60;32.50;;;;;;468750;254;1066;-45
2021/03/24 06:57:20;;;;;;;;;;;21.60;32.50;;;;;;469258;254;2156;-45
2021/03/24 06:59:21;;;;;;;;;;;21.60;32.60;;;;;;467135;253;1086;-45
2021/03/24 07:01:22;;;;;;;;;;;21.60;32.50;;;;;;468356;250;1368;-45
2021/03/24 07:03:23;;;;;;;;;;;21.60;32.50;;;;;;466668;252;1205;-45
2021/03/24 07:05:25;;;;;;;;;;;21.60;32.50;;;;;;467405;253;1109;-45
2021/03/24 07:07:26;;;;;;;;;;;21.60;32.50;;;;;;467123;252;1154;-45
2021/03/24 07:09:27;;;;;;;;;;;21.60;32.40;;;;;;468470;252;1077;-45
2021/03/24 07:11:28;;;;;;;;;;;21.60;32.40;;;;;;466723;252;1273;-46
2021/03/24 07:13:30;;;;;;;;;;;21.60;32.40;;;;;;467316;253;1143;-45
2021/03/24 07:15:31;;;;;;;;;;;21.60;32.50;;;;;;467054;253;1142;-45
2021/03/24 07:17:33;;;;;;;;;;;21.60;32.50;;;;;;468250;252;2207;-45
2021/03/24 07:19:34;;;;;;;;;;;21.60;32.50;;;;;;466441;254;1152;-45
2021/03/24 07:21:35;;;;;;;;;;;21.60;32.50;;;;;;467185;255;1167;-45
2021/03/24 07:23:36;;;;;;;;;;;21.60;32.50;;;;;;467317;254;1118;-45
2021/03/24 07:25:38;;;;;;;;;;;21.70;32.50;;;;;;467019;253;1230;-45
2021/03/24 07:27:39;;;;;;;;;;;21.70;32.50;;;;;;468332;253;1203;-45
2021/03/24 07:29:40;;;;;;;;;;;21.70;32.50;;;;;;466541;252;1248;-45
2021/03/24 07:31:42;;;;;;;;;;;21.60;32.40;;;;;;467296;253;1517;-45
2021/03/24 07:33:43;;;;;;;;;;;21.60;32.40;;;;;;467164;252;1069;-45
2021/03/24 07:35:44;;;;;;;;;;;21.70;32.50;;;;;;468423;252;1104;-45
2021/03/24 07:37:45;;;;;;;;;;;21.70;32.50;;;;;;466430;252;2202;-45
2021/03/24 07:39:47;;;;;;;;;;;21.70;32.50;;;;;;467019;255;1116;-45
2021/03/24 07:41:48;;;;;;;;;;;21.70;32.50;;;;;;466847;252;1392;-45
2021/03/24 07:43:49;;;;;;;;;;;21.70;32.40;;;;;;468351;253;1096;-45
2021/03/24 07:45:51;;;;;;;;;;;21.70;32.40;;;;;;466503;252;1103;-45
2021/03/24 07:47:52;;;;;;;;;;;21.70;32.40;;;;;;467243;253;1247;-46
2021/03/24 07:49:53;;;;;;;;;;;21.70;32.40;;;;;;466960;252;1184;-45
2021/03/24 07:51:54;;;;;;;;;;;21.70;32.40;;;;;;468179;252;1456;-45
2021/03/24 07:53:56;;;;;;;;;;;21.70;32.40;;;;;;466146;252;1114;-45
2021/03/24 07:55:57;;;;;;;;;;;21.70;32.40;;;;;;466936;253;1206;-45
2021/03/24 07:57:58;;;;;;;;;;;21.70;32.40;;;;;;466797;252;2204;-45
2021/03/24 07:59:59;;;;;;;;;;;21.70;32.50;;;;;;468238;252;1092;-45
2021/03/24 08:02:01;;;;;;;;;;;21.70;32.40;;;;;;466451;251;1136;-45
2021/03/24 08:04:02;;;;;;;;;;;21.70;32.40;;;;;;467137;253;1088;-45
2021/03/24 08:06:03;;;;;;;;;;;21.70;32.40;;;;;;467152;254;1326;-45
2021/03/24 08:08:05;;;;;;;;;;;21.70;32.40;;;;;;466910;254;1242;-45
2021/03/24 08:10:06;;;;;;;;;;;21.70;32.40;;;;;;468132;253;1207;-45
2021/03/24 08:12:07;;;;;;;;;;;21.70;32.30;;;;;;466271;253;1236;-45
2021/03/24 08:14:08;;;;;;;;;;;21.70;32.30;;;;;;467024;255;1139;-45
2021/03/24 08:16:10;;;;;;;;;;;21.70;32.40;;;;;;466780;252;1289;-45
2021/03/24 08:18:11;;;;;;;;;;;21.70;32.30;;;;;;468117;252;2201;-45
2021/03/24 08:20:13;;;;;;;;;;;21.70;32.40;;;;;;466286;254;1095;-45
2021/03/24 08:22:14;;;;;;;;;;;21.80;32.30;;;;;;467102;253;1286;-45
2021/03/24 08:24:16;;;;;;;;;;;21.80;32.30;;;;;;466735;253;1121;-45
2021/03/24 08:26:17;;;;;;;;;;;21.70;32.30;;;;;;468103;253;1101;-45
2021/03/24 08:28:18;;;;;;;;;;;21.80;32.30;;;;;;466304;252;1203;-45
2021/03/24 08:30:20;;;;;;;;;;;21.80;32.40;;;;;;467087;255;1230;-45
2021/03/24 08:32:21;;;;;;;;;;;21.80;32.30;;;;;;467064;254;1516;-45
2021/03/24 08:34:22;;;;;;;;;;;21.80;32.40;;;;;;466548;253;1104;-45
2021/03/24 08:36:24;;;;;;;;;;;21.80;32.30;;;;;;468001;253;1372;-45
2021/03/24 08:38:25;;;;;;;;;;;21.80;32.30;;;;;;466373;252;2204;-45
2021/03/24 08:40:26;;;;;;;;;;;21.80;32.30;;;;;;466767;255;1150;-45
2021/03/24 08:42:27;;;;;;;;;;;21.80;32.30;;;;;;466889;253;1214;-45
2021/03/24 08:44:29;;;;;;;;;;;21.80;32.30;;;;;;467976;252;1223;-45
2021/03/24 08:46:30;;;;;;;;;;;21.80;32.20;;;;;;466331;254;1243;-45
2021/03/24 08:48:32;;;;;;;;;;;21.80;32.20;;;;;;466973;253;1285;-45
2021/03/24 08:50:33;;;;;;;;;;;21.80;32.30;;;;;;476638;249;5632;-45
2021/03/24 08:52:34;;;;;;;;;;;21.80;32.30;;;;;;461723;258;1156;-45
2021/03/24 08:54:35;;;;;;;;;;;21.80;32.20;;;;;;477163;249;1091;-45
2021/03/24 08:56:37;;;;;;;;;;;21.80;32.20;;;;;;451280;262;1217;-45
2021/03/24 08:58:38;;;;;;;;;;;21.80;32.20;;;;;;452107;260;2197;-45
2021/03/24 09:00:39;;;;;;;;;;;21.80;32.30;;;;;;451305;262;1153;-45
2021/03/24 09:02:41;;;;;;;;;;;21.80;32.20;;;;;;452164;262;1268;-45
2021/03/24 09:04:42;;;;;;;;;;;21.80;32.20;;;;;;478040;249;971;-45
2021/03/24 09:06:43;;;;;;;;;;;21.80;32.20;;;;;;477407;249;1137;-45
2021/03/24 09:08:44;;;;;;;;;;;21.90;32.30;;;;;;461536;257;1192;-45
2021/03/24 09:10:46;;;;;;;;;;;21.80;32.20;;;;;;477212;249;1100;-45
2021/03/24 09:12:47;;;;;;;;;;;21.90;32.30;;;;;;461505;258;1289;-45
2021/03/24 09:14:49;;;;;;;;;;;21.90;32.20;;;;;;477342;249;1150;-46
2021/03/24 09:16:50;;;;;;;;;;;21.90;32.20;;;;;;461635;257;1171;-45
2021/03/24 09:18:51;;;;;;;;;;;21.90;32.20;;;;;;477292;249;2195;-45
2021/03/24 09:20:52;;;;;;;;;;;21.90;32.20;;;;;;477271;249;1139;-45
2021/03/24 09:22:54;;;;;;;;;;;21.80;32.20;;;;;;477316;249;1437;-45
2021/03/24 09:24:55;;;;;;;;;;;21.90;32.30;;;;;;477317;249;1061;-45
2021/03/24 09:26:56;;;;;;;;;;;21.90;32.20;;;;;;477372;248;1203;-45
2021/03/24 09:28:58;;;;;;;;;;;21.90;32.20;;;;;;476649;249;1095;-45
2021/03/24 09:30:59;;;;;;;;;;;21.90;32.10;;;;;;477228;249;1139;-45
2021/03/24 09:33:00;;;;;;;;;;;21.90;32.20;;;;;;477351;248;1172;-45
2021/03/24 09:35:01;;;;;;;;;;;21.90;32.20;;;;;;477230;249;1134;-45
2021/03/24 09:37:03;;;;;;;;;;;21.90;32.30;;;;;;451406;261;1264;-45
2021/03/24 09:39:04;;;;;;;;;;;21.90;32.20;;;;;;451993;261;2181;-45
2021/03/24 09:41:05;;;;;;;;;;;21.90;32.20;;;;;;477210;249;1266;-45
2021/03/24 09:43:07;;;;;;;;;;;21.90;32.20;;;;;;451051;261;1051;-45
2021/03/24 09:45:08;;;;;;;;;;;21.90;32.20;;;;;;466151;255;941;-45
2021/03/24 09:47:09;;;;;;;;;;;21.90;32.20;;;;;;478004;248;1164;-46
2021/03/24 09:49:10;;;;;;;;;;;21.90;32.20;;;;;;477352;248;1175;-45
2021/03/24 09:51:12;;;;;;;;;;;21.90;32.20;;;;;;477016;249;1084;-45
2021/03/24 09:53:13;;;;;;;;;;;21.90;32.20;;;;;;476991;249;1120;-45
2021/03/24 09:55:14;;;;;;;;;;;21.90;32.20;;;;;;477047;249;1309;-45
2021/03/24 09:57:16;;;;;;;;;;;21.90;32.20;;;;;;477124;248;1070;-46
2021/03/24 09:59:17;;;;;;;;;;;21.90;32.20;;;;;;477194;248;2156;-45
2021/03/24 10:01:18;;;;;;;;;;;21.90;32.20;;;;;;477266;248;1119;-45
2021/03/24 10:03:19;;;;;;;;;;;21.90;32.10;;;;;;477142;248;1073;-45
2021/03/24 10:05:21;;;;;;;;;;;22.00;32.20;;;;;;465002;255;1156;-45
2021/03/24 10:07:23;;;;;;;;;;;21.90;32.20;;;;;;465525;250;1382;-45
2021/03/24 10:09:23;;;;;;;;;;;21.90;32.20;;;;;;465583;254;1508;-45
2021/03/24 10:11:25;;;;;;;;;;;21.90;32.20;;;;;;465545;254;1249;-45
2021/03/24 10:13:26;;;;;;;;;;;21.90;32.20;;;;;;465637;254;1293;-45
2021/03/24 10:15:27;;;;;;;;;;;21.90;32.20;;;;;;465621;254;1318;-45
2021/03/24 10:17:28;;;;;;;;;;;21.90;32.20;;;;;;465581;254;1365;-45
2021/03/24 10:19:30;;;;;;;;;;;21.90;32.20;;;;;;465079;254;2213;-46
2021/03/24 10:21:31;;;;;;;;;;;21.90;32.20;;;;;;465680;254;1311;-45
2021/03/24 10:23:32;;;;;;;;;;;21.90;32.20;;;;;;465674;254;1223;-45
2021/03/24 10:25:34;;;;;;;;;;;22.00;32.20;;;;;;465609;254;1113;-45
2021/03/24 10:27:35;;;;;;;;;;;21.90;32.20;;;;;;465608;254;1280;-45
2021/03/24 10:29:36;;;;;;;;;;;21.90;32.20;;;;;;465491;254;1173;-45
2021/03/24 10:31:37;;;;;;;;;;;21.90;32.30;;;;;;465674;254;1296;-45
2021/03/24 10:33:39;;;;;;;;;;;21.90;32.30;;;;;;465833;254;1164;-45
2021/03/24 10:35:40;;;;;;;;;;;21.90;32.20;;;;;;465623;254;1191;-45
2021/03/24 10:37:41;;;;;;;;;;;21.90;32.20;;;;;;465692;254;1288;-45
2021/03/24 10:39:43;;;;;;;;;;;21.90;32.20;;;;;;465629;254;2197;-45
2021/03/24 10:41:44;;;;;;;;;;;21.90;32.20;;;;;;465747;254;1174;-45
2021/03/24 10:43:45;;;;;;;;;;;21.90;32.20;;;;;;466588;252;913;-45
2021/03/24 10:45:47;;;;;;;;;;;22.00;32.00;;;;;;465852;254;1126;-45
2021/03/24 10:47:48;;;;;;;;;;;21.70;32.40;;;;;;465675;256;1200;-45
2021/03/24 10:49:49;;;;;;;;;;;21.20;33.30;;;;;;465708;250;1614;-45
2021/03/24 10:51:50;;;;;;;;;;;20.70;34.00;;;;;;465803;254;1332;-45
2021/03/24 10:53:52;;;;;;;;;;;20.40;34.60;;;;;;465719;254;1313;-45
2021/03/24 10:55:53;;;;;;;;;;;20.20;35.00;;;;;;465673;254;1329;-45
2021/03/24 10:57:55;;;;;;;;;;;20.10;35.40;;;;;;465589;254;1177;-45
2021/03/24 10:59:57;;;;;;;;;;;19.90;35.50;;;;;;465677;254;2194;-45
2021/03/24 11:01:57;;;;;;;;;;;19.90;35.70;;;;;;465613;254;1600;-45
2021/03/24 11:03:58;;;;;;;;;;;19.80;35.80;;;;;;465706;254;1104;-45
2021/03/24 11:06:00;;;;;;;;;;;19.70;35.90;;;;;;465625;254;1128;-45
2021/03/24 11:08:01;;;;;;;;;;;19.70;36.00;;;;;;465572;254;1284;-45
2021/03/24 11:10:04;;;;;;;;;;;19.70;36.00;;;;;;465472;254;1210;-45
2021/03/24 11:12:06;;;;;;;;;;;19.60;36.10;;;;;;465534;254;1140;-45
2021/03/24 11:14:06;;;;;;;;;;;19.60;36.20;;;;;;465622;254;1398;-45
2021/03/24 11:16:08;;;;;;;;;;;19.60;36.30;;;;;;465684;254;1109;-45
2021/03/24 11:18:09;;;;;;;;;;;19.50;36.30;;;;;;465809;254;1297;-45
2021/03/24 11:20:11;;;;;;;;;;;19.50;36.40;;;;;;465868;254;2201;-45
2021/03/24 11:22:12;;;;;;;;;;;19.50;36.30;;;;;;465788;254;1276;-45
2021/03/24 11:24:13;;;;;;;;;;;19.50;36.30;;;;;;465687;254;1174;-45
2021/03/24 11:26:14;;;;;;;;;;;19.40;36.40;;;;;;465805;254;1377;-45
2021/03/24 11:28:15;;;;;;;;;;;19.50;36.40;;;;;;465792;254;1376;-45
2021/03/24 11:30:17;;;;;;;;;;;19.30;36.40;;;;;;465801;254;1164;-45
2021/03/24 11:32:18;;;;;;;;;;;19.40;36.60;;;;;;465819;255;1288;-45
2021/03/24 11:34:20;;;;;;;;;;;19.30;36.60;;;;;;465794;252;1177;-45
2021/03/24 11:36:21;;;;;;;;;;;19.30;36.60;;;;;;465869;252;1390;-45
2021/03/24 11:38:22;;;;;;;;;;;19.30;36.70;;;;;;465857;252;2190;-45
2021/03/24 11:40:24;;;;;;;;;;;19.20;36.70;;;;;;465838;254;1213;-45
2021/03/24 11:42:25;;;;;;;;;;;19.20;36.80;;;;;;465669;254;1155;-45
2021/03/24 11:44:30;;;;;;;;;;;19.20;36.70;;;;;;465876;254;1164;-45
2021/03/24 11:46:28;;;;;;;;;;;19.20;36.70;;;;;;465718;254;2082;-45
2021/03/24 11:48:29;;;;;;;;;;;19.10;36.80;;;;;;465863;254;2011;-45
2021/03/24 11:50:30;;;;;;;;;;;19.20;36.70;;;;;;465812;254;1104;-45
2021/03/24 11:52:32;;;;;;;;;;;19.10;36.70;;;;;;465808;254;1136;-45
2021/03/24 11:54:35;;;;;;;;;;;19.10;36.70;;;;;;465811;254;1283;-45
2021/03/24 11:56:34;;;;;;;;;;;19.10;36.70;;;;;;465645;254;1283;-45